createdAt,value
2024-04-24T00:01:27.633Z,92588.81
2024-04-24T00:03:54.928Z,92589.22
2024-04-24T00:06:23.168Z,92587.84
2024-04-24T00:08:53.211Z,92581.56
2024-04-24T00:11:21.481Z,92588.47
2024-04-24T00:13:48.911Z,92581.09
2024-04-24T00:16:16.287Z,92574.81
2024-04-24T00:18:43.974Z,92593.63
2024-04-24T00:21:14.008Z,92588.19
2024-04-24T00:23:41.322Z,92585.78
2024-04-24T00:26:11.705Z,92560.66
2024-04-24T00:28:39.064Z,92566.84
2024-04-24T00:31:06.372Z,92570.94
2024-04-24T00:33:33.850Z,92560.66
2024-04-24T00:36:01.293Z,92563.09
2024-04-24T00:38:28.756Z,92556.41
2024-04-24T00:40:56.191Z,92553.47
2024-04-24T00:43:26.180Z,92553.47
2024-04-24T00:45:53.628Z,92547.13
2024-04-24T00:48:21.091Z,92562.66
2024-04-24T00:50:49.012Z,92565.63
2024-04-24T00:53:16.499Z,92576.28
2024-04-24T00:55:44.325Z,92578.94
2024-04-24T00:58:13.816Z,92578.56
2024-04-24T01:00:44.415Z,92583.97
2024-04-24T01:03:12.262Z,92580.16
2024-04-24T01:05:39.798Z,92575.78
2024-04-24T01:08:07.613Z,92588.16
2024-04-24T01:10:34.936Z,92590.72
2024-04-24T01:13:02.434Z,92588.16
2024-04-24T01:15:30.267Z,92590.97
2024-04-24T01:18:00.910Z,92592.19
2024-04-24T01:20:29.160Z,92588.66
2024-04-24T01:23:18.655Z,92590.41
2024-04-24T01:25:51.281Z,92590.94
2024-04-24T01:28:23.081Z,92605.31
2024-04-24T01:30:50.567Z,92602.75
2024-04-24T01:33:18.326Z,92601.38
2024-04-24T01:35:45.913Z,92609.47
2024-04-24T01:38:13.360Z,92606.44
2024-04-24T01:40:40.696Z,92602.00
2024-04-24T01:43:08.028Z,92613.66
2024-04-24T01:45:38.308Z,92615.31
2024-04-24T01:48:06.539Z,92618.31
2024-04-24T01:50:34.065Z,92618.94
2024-04-24T01:53:01.594Z,92611.28
2024-04-24T01:55:29.098Z,92616.06
2024-04-24T01:57:56.420Z,92622.59
2024-04-24T02:00:23.792Z,92618.84
2024-04-24T02:02:54.019Z,92613.38
2024-04-24T02:05:21.391Z,92626.00
2024-04-24T02:07:48.950Z,92612.97
2024-04-24T02:10:16.549Z,92624.69
2024-04-24T02:12:43.954Z,92624.44
2024-04-24T02:15:11.592Z,92621.50
2024-04-24T02:17:38.923Z,92619.56
2024-04-24T02:20:10.227Z,92623.72
2024-04-24T02:22:39.765Z,92624.91
2024-04-24T02:25:25.835Z,92620.31
2024-04-24T02:27:53.233Z,92625.84
2024-04-24T02:30:20.537Z,92627.00
2024-04-24T02:32:48.061Z,92639.78
2024-04-24T02:35:18.380Z,92646.47
2024-04-24T02:37:45.862Z,92643.47
2024-04-24T02:40:13.341Z,92647.09
2024-04-24T02:42:40.688Z,92645.09
2024-04-24T02:45:08.564Z,92639.63
2024-04-24T02:47:36.105Z,92634.28
2024-04-24T02:50:03.766Z,92634.84
2024-04-24T02:52:34.039Z,92631.13
2024-04-24T02:55:01.412Z,92636.91
2024-04-24T02:57:29.895Z,92638.91
2024-04-24T02:59:57.217Z,92644.13
2024-04-24T03:02:24.608Z,92640.00
2024-04-24T03:04:52.126Z,92642.59
2024-04-24T03:07:19.455Z,92645.97
2024-04-24T03:09:49.475Z,92643.22
2024-04-24T03:12:16.883Z,92640.44
2024-04-24T03:14:44.228Z,92643.63
2024-04-24T03:17:11.646Z,92640.28
2024-04-24T03:19:39.152Z,92640.44
2024-04-24T03:22:06.587Z,92647.75
2024-04-24T03:24:33.884Z,92645.38
2024-04-24T03:27:04.015Z,92652.72
2024-04-24T03:29:31.782Z,92647.00
2024-04-24T03:31:59.237Z,92656.72
2024-04-24T03:34:26.670Z,92659.28
2024-04-24T03:36:54.002Z,92658.31
2024-04-24T03:39:21.305Z,92670.75
2024-04-24T03:41:48.583Z,92668.97
2024-04-24T03:44:19.007Z,92671.19
2024-04-24T03:46:46.497Z,92666.63
2024-04-24T03:49:14.081Z,92679.13
2024-04-24T03:51:41.421Z,92675.38
2024-04-24T03:54:08.794Z,92686.69
2024-04-24T03:56:36.213Z,92684.53
2024-04-24T03:59:03.782Z,92689.06
2024-04-24T04:01:33.798Z,92691.47
2024-04-24T04:04:03.356Z,92688.69
2024-04-24T04:06:31.063Z,92700.56
2024-04-24T04:08:58.392Z,92701.38
2024-04-24T04:11:25.808Z,92695.44
2024-04-24T04:13:55.270Z,92700.56
2024-04-24T04:16:22.653Z,92701.38
2024-04-24T04:18:52.872Z,92700.56
2024-04-24T04:21:20.237Z,92706.47
2024-04-24T04:23:47.505Z,92700.28
2024-04-24T04:26:15.049Z,92699.47
2024-04-24T04:28:42.517Z,92699.94
2024-04-24T04:31:09.806Z,92702.28
2024-04-24T04:33:37.422Z,92702.34
2024-04-24T04:36:08.784Z,92699.78
2024-04-24T04:38:36.108Z,92699.94
2024-04-24T04:41:04.879Z,92704.53
2024-04-24T04:43:32.217Z,92701.31
2024-04-24T04:45:59.727Z,92705.28
2024-04-24T04:48:27.118Z,92698.81
2024-04-24T04:50:54.804Z,92702.94
2024-04-24T04:53:24.886Z,92705.16
2024-04-24T04:55:52.241Z,92709.69
2024-04-24T04:58:19.488Z,92704.19
2024-04-24T05:00:46.833Z,92707.16
2024-04-24T05:03:14.358Z,92699.28
2024-04-24T05:05:41.764Z,92702.44
2024-04-24T05:08:09.198Z,92704.09
2024-04-24T05:10:39.307Z,92701.19
2024-04-24T05:13:10.701Z,92703.44
2024-04-24T05:15:38.510Z,92711.78
2024-04-24T05:18:06.376Z,92706.88
2024-04-24T05:20:33.940Z,92707.69
2024-04-24T05:23:05.676Z,92708.72
2024-04-24T05:25:37.905Z,92706.78
2024-04-24T05:28:28.932Z,92700.50
2024-04-24T05:30:56.468Z,92700.50
2024-04-24T05:33:24.043Z,92703.66
2024-04-24T05:35:51.529Z,92701.13
2024-04-24T05:38:18.904Z,92705.13
2024-04-24T05:40:46.363Z,92704.13
2024-04-24T05:43:17.017Z,92703.75
2024-04-24T05:45:44.515Z,92705.81
2024-04-24T05:48:12.445Z,92704.47
2024-04-24T05:50:39.851Z,92713.44
2024-04-24T05:53:07.256Z,92703.53
2024-04-24T05:55:34.545Z,92700.97
2024-04-24T05:58:01.924Z,92696.81
2024-04-24T06:00:32.046Z,92704.16
2024-04-24T06:03:00.300Z,92707.38
2024-04-24T06:05:27.889Z,92707.34
2024-04-24T06:07:56.814Z,92709.94
2024-04-24T06:10:24.332Z,92716.91
2024-04-24T06:12:51.646Z,92713.31
2024-04-24T06:15:19.090Z,92713.31
2024-04-24T06:17:49.227Z,92704.00
2024-04-24T06:20:18.125Z,92704.63
2024-04-24T06:22:45.884Z,92707.38
2024-04-24T06:25:13.274Z,92702.41
2024-04-24T06:27:40.666Z,92690.13
2024-04-24T06:30:08.590Z,92706.19
2024-04-24T06:32:36.108Z,92710.16
2024-04-24T06:35:06.273Z,92706.78
2024-04-24T06:37:33.839Z,92707.19
2024-04-24T06:40:01.172Z,92713.94
2024-04-24T06:42:29.556Z,92716.50
2024-04-24T06:44:56.941Z,92717.13
2024-04-24T06:47:24.411Z,92717.09
2024-04-24T06:49:51.910Z,92724.06
2024-04-24T06:52:22.033Z,92722.09
2024-04-24T06:54:49.484Z,92714.75
2024-04-24T06:57:18.362Z,92714.31
2024-04-24T06:59:48.586Z,92718.31
2024-04-24T07:02:16.152Z,92722.06
2024-04-24T07:04:43.506Z,92721.50
2024-04-24T07:07:11.037Z,92724.66
2024-04-24T07:09:41.283Z,92728.81
2024-04-24T07:12:08.628Z,92728.03
2024-04-24T07:14:35.982Z,92721.69
2024-04-24T07:17:03.594Z,92717.31
2024-04-24T07:19:31.016Z,92717.91
2024-04-24T07:21:58.578Z,92715.31
2024-04-24T07:24:25.935Z,92719.88
2024-04-24T07:26:58.183Z,92713.91
2024-04-24T07:29:25.782Z,92713.06
2024-04-24T07:31:53.447Z,92716.19
2024-04-24T07:34:21.128Z,92717.97
2024-04-24T07:36:48.572Z,92712.00
2024-04-24T07:39:15.984Z,92718.53
2024-04-24T07:41:43.934Z,92721.03
2024-04-24T07:44:13.796Z,92722.31
2024-04-24T07:46:41.572Z,92727.41
2024-04-24T07:49:08.868Z,92730.63
2024-04-24T07:51:36.311Z,92725.81
2024-04-24T07:54:03.735Z,92728.88
2024-04-24T07:56:31.168Z,92725.94
2024-04-24T07:58:58.653Z,92730.41
2024-04-24T08:01:28.867Z,92731.38
2024-04-24T08:03:56.473Z,92729.69
2024-04-24T08:06:23.854Z,92732.84
2024-04-24T08:08:51.138Z,92730.06
2024-04-24T08:11:18.679Z,92726.44
2024-04-24T08:13:46.090Z,92716.81
2024-04-24T08:16:13.516Z,92721.03
2024-04-24T08:18:45.418Z,92721.75
2024-04-24T08:21:12.832Z,92718.47
2024-04-24T08:23:40.332Z,92722.66
2024-04-24T08:26:08.636Z,92732.75
2024-04-24T08:28:40.972Z,92727.88
2024-04-24T08:31:09.619Z,92726.06
2024-04-24T08:33:37.716Z,92718.16
2024-04-24T08:36:13.635Z,92719.06
2024-04-24T08:38:41.406Z,92715.63
2024-04-24T08:41:09.776Z,92715.28
2024-04-24T08:43:38.476Z,92716.19
2024-04-24T08:46:07.093Z,92709.78
2024-04-24T08:48:35.750Z,92703.38
2024-04-24T08:51:03.663Z,92704.19
2024-04-24T08:53:34.597Z,92704.09
2024-04-24T08:56:04.338Z,92710.25
2024-04-24T08:58:33.739Z,92699.00
2024-04-24T09:01:05.477Z,92706.78
2024-04-24T09:03:35.009Z,92708.50
2024-04-24T09:06:03.989Z,92706.69
2024-04-24T09:08:36.417Z,92711.97
2024-04-24T09:11:04.149Z,92710.50
2024-04-24T09:13:31.343Z,92710.25
2024-04-24T09:16:01.120Z,92710.44
2024-04-24T09:18:28.745Z,92707.72
2024-04-24T09:20:56.985Z,92706.31
2024-04-24T09:23:25.769Z,92703.06
2024-04-24T09:25:56.981Z,92707.22
2024-04-24T09:28:24.810Z,92707.81
2024-04-24T09:30:53.857Z,92701.91
2024-04-24T09:33:22.019Z,92691.56
2024-04-24T09:35:49.577Z,92694.63
2024-04-24T09:38:17.074Z,92696.50
2024-04-24T09:40:44.729Z,92690.50
2024-04-24T09:43:14.736Z,92690.28
2024-04-24T09:45:42.226Z,92682.84
2024-04-24T09:48:17.556Z,92679.81
2024-04-24T09:50:47.003Z,92676.13
2024-04-24T09:53:17.284Z,92674.53
2024-04-24T09:55:49.393Z,92662.84
2024-04-24T09:58:23.571Z,92659.72
2024-04-24T10:00:52.380Z,92651.59
2024-04-24T10:03:20.968Z,92659.19
2024-04-24T10:05:56.568Z,92661.06
2024-04-24T10:08:30.785Z,92662.31
2024-04-24T10:10:58.505Z,92662.75
2024-04-24T10:13:29.615Z,92663.75
2024-04-24T10:16:04.685Z,92656.31
2024-04-24T10:18:34.537Z,92657.88
2024-04-24T10:21:04.645Z,92660.75
2024-04-24T10:23:32.566Z,92660.03
2024-04-24T10:26:00.497Z,92653.97
2024-04-24T10:28:31.884Z,92653.09
2024-04-24T10:31:00.548Z,92649.44
2024-04-24T10:33:28.515Z,92651.03
2024-04-24T10:35:57.072Z,92644.84
2024-04-24T10:38:27.413Z,92650.34
2024-04-24T10:40:55.029Z,92646.38
2024-04-24T10:43:24.056Z,92639.03
2024-04-24T10:46:01.497Z,92645.34
2024-04-24T10:48:43.966Z,92638.53
2024-04-24T10:51:11.365Z,92635.59
2024-04-24T10:53:55.799Z,92642.97
2024-04-24T10:56:34.216Z,92646.38
2024-04-24T10:59:03.764Z,92649.28
2024-04-24T11:01:42.128Z,92649.56
2024-04-24T11:04:16.540Z,92648.47
2024-04-24T11:06:44.213Z,92637.94
2024-04-24T11:09:11.979Z,92629.84
2024-04-24T11:11:39.700Z,92636.41
2024-04-24T11:14:11.107Z,92636.34
2024-04-24T11:16:55.405Z,92627.38
2024-04-24T11:19:25.789Z,92618.41
2024-04-24T11:21:53.123Z,92608.81
2024-04-24T11:24:28.480Z,92617.31
2024-04-24T11:26:55.957Z,92616.16
2024-04-24T11:29:23.532Z,92621.63
2024-04-24T11:31:53.564Z,92622.31
2024-04-24T11:34:21.243Z,92614.28
2024-04-24T11:36:49.209Z,92610.00
2024-04-24T11:39:18.899Z,92610.41
2024-04-24T11:41:50.695Z,92610.41
2024-04-24T11:44:18.316Z,92599.91
2024-04-24T11:46:48.609Z,92607.91
2024-04-24T11:49:20.996Z,92604.50
2024-04-24T11:51:48.572Z,92604.66
2024-04-24T11:54:16.289Z,92602.97
2024-04-24T11:56:45.818Z,92605.44
2024-04-24T11:59:15.828Z,92591.50
2024-04-24T12:01:43.500Z,92583.72
2024-04-24T12:04:10.993Z,92584.31
2024-04-24T12:06:41.540Z,92579.91
2024-04-24T12:09:09.222Z,92577.53
2024-04-24T12:11:40.372Z,92581.78
2024-04-24T12:14:08.062Z,92581.56
2024-04-24T12:16:35.392Z,92573.28
2024-04-24T12:19:02.723Z,92570.38
2024-04-24T12:21:30.257Z,92567.63
2024-04-24T12:23:59.960Z,92567.22
2024-04-24T12:26:30.467Z,92566.03
2024-04-24T12:28:57.890Z,92567.81
2024-04-24T12:31:25.402Z,92564.78
2024-04-24T12:33:53.030Z,92570.53
2024-04-24T12:36:20.546Z,92569.00
2024-04-24T12:38:47.675Z,92561.53
2024-04-24T12:41:17.783Z,92563.84
2024-04-24T12:43:45.247Z,92566.91
2024-04-24T12:46:12.534Z,92563.56
2024-04-24T12:48:40.802Z,92549.84
2024-04-24T12:51:09.041Z,92555.59
2024-04-24T12:53:36.669Z,92543.53
2024-04-24T12:56:04.656Z,92540.31
2024-04-24T12:58:34.969Z,92536.91
2024-04-24T13:01:02.464Z,92538.97
2024-04-24T13:03:30.018Z,92535.00
2024-04-24T13:05:57.345Z,92532.66
2024-04-24T13:08:24.786Z,92518.63
2024-04-24T13:10:52.067Z,92521.84
2024-04-24T13:13:19.611Z,92515.22
2024-04-24T13:15:49.760Z,92512.91
2024-04-24T13:18:20.555Z,92517.47
2024-04-24T13:20:49.450Z,92516.31
2024-04-24T13:23:16.477Z,92513.69
2024-04-24T13:25:48.993Z,92500.97
2024-04-24T13:28:16.882Z,92503.75
2024-04-24T13:30:44.874Z,92502.09
2024-04-24T13:33:14.950Z,92496.84
2024-04-24T13:35:42.343Z,92496.31
2024-04-24T13:38:09.412Z,92502.66
2024-04-24T13:40:36.906Z,92497.28
2024-04-24T13:43:04.793Z,92487.16
2024-04-24T13:45:32.216Z,92492.56
2024-04-24T13:47:59.647Z,92486.34
2024-04-24T13:50:29.936Z,92474.16
2024-04-24T13:52:57.384Z,92476.34
2024-04-24T13:55:24.817Z,92485.56
2024-04-24T13:57:52.192Z,92484.19
2024-04-24T14:00:19.739Z,92476.19
2024-04-24T14:02:48.766Z,92478.31
2024-04-24T14:05:16.246Z,92481.28
2024-04-24T14:07:46.339Z,92483.22
2024-04-24T14:10:13.885Z,92483.16
2024-04-24T14:12:41.188Z,92477.88
2024-04-24T14:15:10.094Z,92484.38
2024-04-24T14:17:39.119Z,92474.72
2024-04-24T14:20:07.778Z,92490.13
2024-04-24T14:22:35.123Z,92484.97
2024-04-24T14:25:06.356Z,92486.78
2024-04-24T14:27:33.715Z,92478.22
2024-04-24T14:30:00.883Z,92472.88
2024-04-24T14:32:28.413Z,92480.34
2024-04-24T14:34:55.996Z,92473.53
2024-04-24T14:37:23.031Z,92469.25
2024-04-24T14:39:50.387Z,92478.56
2024-04-24T14:42:22.387Z,92477.47
2024-04-24T14:44:49.823Z,92473.84
2024-04-24T14:47:19.761Z,92480.06
2024-04-24T14:49:47.461Z,92476.28
2024-04-24T14:52:19.289Z,92482.84
2024-04-24T14:54:46.633Z,92481.97
2024-04-24T14:57:13.750Z,92483.22
2024-04-24T14:59:44.045Z,92462.00
2024-04-24T15:02:11.513Z,92470.59
2024-04-24T15:04:39.075Z,92475.25
2024-04-24T15:07:16.741Z,92473.47
2024-04-24T15:09:44.208Z,92467.66
2024-04-24T15:12:12.206Z,92471.25
2024-04-24T15:14:39.844Z,92470.19
2024-04-24T15:17:09.733Z,92467.00
2024-04-24T15:19:39.499Z,92468.88
2024-04-24T15:22:08.181Z,92473.00
2024-04-24T15:24:36.131Z,92475.88
2024-04-24T15:27:04.045Z,92485.28
2024-04-24T15:29:31.544Z,92485.34
2024-04-24T15:31:59.220Z,92484.53
2024-04-24T15:34:29.277Z,92480.09
2024-04-24T15:36:56.748Z,92482.31
2024-04-24T15:39:24.220Z,92478.69
2024-04-24T15:41:56.116Z,92483.47
2024-04-24T15:44:23.555Z,92487.66
2024-04-24T15:46:50.979Z,92483.84
2024-04-24T15:49:19.416Z,92478.84
2024-04-24T15:51:49.513Z,92489.31
2024-04-24T15:54:16.954Z,92478.94
2024-04-24T15:56:44.272Z,92487.38
2024-04-24T15:59:11.708Z,92483.56
2024-04-24T16:01:38.951Z,92485.69
2024-04-24T16:04:06.247Z,92492.13
2024-04-24T16:06:33.653Z,92485.22
2024-04-24T16:09:03.718Z,92472.97
2024-04-24T16:11:31.138Z,92475.97
2024-04-24T16:13:58.680Z,92475.19
2024-04-24T16:16:25.959Z,92474.16
2024-04-24T16:18:53.526Z,92473.34
2024-04-24T16:21:21.529Z,92474.00
2024-04-24T16:23:49.102Z,92483.56
2024-04-24T16:26:19.013Z,92473.47
2024-04-24T16:28:46.638Z,92478.25
2024-04-24T16:31:14.163Z,92479.84
2024-04-24T16:33:41.420Z,92484.72
2024-04-24T16:36:11.575Z,92487.47
2024-04-24T16:38:39.108Z,92490.59
2024-04-24T16:41:07.975Z,92492.97
2024-04-24T16:43:38.073Z,92488.91
2024-04-24T16:46:05.489Z,92489.84
2024-04-24T16:48:33.004Z,92496.47
2024-04-24T16:51:00.623Z,92501.44
2024-04-24T16:53:28.043Z,92497.94
2024-04-24T16:55:55.515Z,92500.88
2024-04-24T16:58:23.007Z,92500.03
2024-04-24T17:00:53.132Z,92502.56
2024-04-24T17:03:20.675Z,92506.75
2024-04-24T17:05:48.001Z,92504.81
2024-04-24T17:08:15.423Z,92509.41
2024-04-24T17:10:43.364Z,92503.59
2024-04-24T17:13:10.725Z,92503.22
2024-04-24T17:15:38.866Z,92504.28
2024-04-24T17:18:09.139Z,92510.47
2024-04-24T17:20:36.616Z,92502.28
2024-04-24T17:23:04.212Z,92497.28
2024-04-24T17:25:31.602Z,92503.88
2024-04-24T17:27:59.079Z,92501.88
2024-04-24T17:30:26.471Z,92502.03
2024-04-24T17:32:53.926Z,92497.53
2024-04-24T17:35:26.187Z,92505.19
2024-04-24T17:37:53.678Z,92507.44
2024-04-24T17:40:21.312Z,92511.72
2024-04-24T17:42:48.765Z,92508.09
2024-04-24T17:45:16.225Z,92520.63
2024-04-24T17:47:44.205Z,92518.81
2024-04-24T17:50:11.340Z,92519.25
2024-04-24T17:52:41.683Z,92516.09
2024-04-24T17:55:09.017Z,92522.50
2024-04-24T17:57:37.105Z,92521.63
2024-04-24T18:00:05.109Z,92528.59
2024-04-24T18:02:33.545Z,92524.75
2024-04-24T18:05:02.613Z,92532.16
2024-04-24T18:07:30.054Z,92537.59
2024-04-24T18:10:00.180Z,92543.00
2024-04-24T18:12:27.502Z,92550.63
2024-04-24T18:14:55.818Z,92558.41
2024-04-24T18:17:23.138Z,92557.81
2024-04-24T18:19:50.869Z,92557.16
2024-04-24T18:22:18.257Z,92567.31
2024-04-24T18:24:45.534Z,92570.72
2024-04-24T18:27:15.670Z,92585.81
2024-04-24T18:29:43.220Z,92583.13
2024-04-24T18:32:10.819Z,92582.94
2024-04-24T18:34:38.909Z,92584.16
2024-04-24T18:37:07.710Z,92584.25
2024-04-24T18:39:36.226Z,92579.16
2024-04-24T18:42:03.923Z,92593.19
2024-04-24T18:44:34.115Z,92590.34
2024-04-24T18:47:01.567Z,92602.13
2024-04-24T18:49:29.060Z,92595.38
2024-04-24T18:51:56.562Z,92599.13
2024-04-24T18:54:24.236Z,92602.06
2024-04-24T18:56:51.751Z,92607.94
2024-04-24T18:59:19.617Z,92614.41
2024-04-24T19:01:50.031Z,92612.38
2024-04-24T19:04:18.247Z,92613.66
2024-04-24T19:06:45.814Z,92617.25
2024-04-24T19:09:13.271Z,92616.81
2024-04-24T19:11:40.844Z,92614.50
2024-04-24T19:14:10.563Z,92618.28
2024-04-24T19:16:38.219Z,92617.72
2024-04-24T19:19:08.326Z,92629.63
2024-04-24T19:21:35.759Z,92626.13
2024-04-24T19:24:03.215Z,92619.75
2024-04-24T19:26:30.892Z,92628.75
2024-04-24T19:28:58.301Z,92619.41
2024-04-24T19:31:32.611Z,92629.13
2024-04-24T19:34:01.308Z,92626.75
2024-04-24T19:36:31.868Z,92630.91
2024-04-24T19:38:59.294Z,92632.50
2024-04-24T19:41:26.822Z,92645.03
2024-04-24T19:43:54.332Z,92642.44
2024-04-24T19:46:21.808Z,92649.56
2024-04-24T19:48:52.613Z,92644.22
2024-04-24T19:51:20.137Z,92650.22
2024-04-24T19:53:54.665Z,92653.03
2024-04-24T19:56:22.039Z,92657.22
2024-04-24T19:58:49.465Z,92648.38
2024-04-24T20:01:16.921Z,92652.94
2024-04-24T20:03:44.534Z,92649.81
2024-04-24T20:06:13.115Z,92643.44
2024-04-24T20:08:40.722Z,92641.44
2024-04-24T20:11:10.892Z,92646.03
2024-04-24T20:13:38.379Z,92648.03
2024-04-24T20:16:06.607Z,92637.72
2024-04-24T20:18:35.723Z,92636.84
2024-04-24T20:21:03.581Z,92632.91
2024-04-24T20:23:31.192Z,92634.34
2024-04-24T20:25:58.672Z,92629.25
2024-04-24T20:28:28.723Z,92638.25
2024-04-24T20:30:56.587Z,92644.44
2024-04-24T20:33:25.386Z,92645.84
2024-04-24T20:35:53.011Z,92644.25
2024-04-24T20:38:20.469Z,92638.13
2024-04-24T20:40:47.946Z,92630.03
2024-04-24T20:43:15.362Z,92633.59
2024-04-24T20:45:45.446Z,92624.84
2024-04-24T20:48:13.145Z,92632.19
2024-04-24T20:50:40.758Z,92627.44
2024-04-24T20:53:09.232Z,92630.03
2024-04-24T20:55:36.698Z,92633.56
2024-04-24T20:58:04.516Z,92631.78
2024-04-24T21:00:31.964Z,92622.09
2024-04-24T21:03:02.348Z,92621.28
2024-04-24T21:05:30.174Z,92608.78
2024-04-24T21:07:57.617Z,92609.19
2024-04-24T21:10:25.025Z,92621.09
2024-04-24T21:12:52.427Z,92630.41
2024-04-24T21:15:19.785Z,92631.00
2024-04-24T21:17:47.286Z,92634.97
2024-04-24T21:20:17.616Z,92637.56
2024-04-24T21:22:45.177Z,92650.44
2024-04-24T21:25:13.224Z,92651.44
2024-04-24T21:27:40.790Z,92642.31
2024-04-24T21:30:08.859Z,92642.91
2024-04-24T21:32:36.349Z,92646.88
2024-04-24T21:35:04.014Z,92648.06
2024-04-24T21:37:36.650Z,92642.31
2024-04-24T21:40:08.295Z,92633.19
2024-04-24T21:42:35.639Z,92635.56
2024-04-24T21:45:03.098Z,92636.13
2024-04-24T21:47:30.721Z,92637.72
2024-04-24T21:49:58.046Z,92639.72
2024-04-24T21:52:25.554Z,92647.44
2024-04-24T21:54:55.683Z,92663.91
2024-04-24T21:57:23.084Z,92657.16
2024-04-24T21:59:50.460Z,92670.88
2024-04-24T22:02:18.962Z,92661.16
2024-04-24T22:04:46.441Z,92660.75
2024-04-24T22:07:13.943Z,92664.72
2024-04-24T22:09:41.392Z,92669.28
2024-04-24T22:12:14.286Z,92674.66
2024-04-24T22:14:42.089Z,92670.28
2024-04-24T22:17:19.132Z,92657.38
2024-04-24T22:19:52.384Z,92650.44
2024-04-24T22:22:20.513Z,92652.44
2024-04-24T22:24:47.901Z,92655.41
2024-04-24T22:27:17.911Z,92658.19
2024-04-24T22:29:45.316Z,92657.97
2024-04-24T22:32:12.742Z,92653.63
2024-04-24T22:34:40.600Z,92643.53
2024-04-24T22:37:08.597Z,92643.31
2024-04-24T22:39:36.282Z,92638.75
2024-04-24T22:42:04.930Z,92645.91
2024-04-24T22:44:35.339Z,92644.88
2024-04-24T22:47:02.747Z,92624.88
2024-04-24T22:49:30.054Z,92624.28
2024-04-24T22:51:57.624Z,92610.97
2024-04-24T22:54:24.985Z,92617.94
2024-04-24T22:56:52.773Z,92623.88
2024-04-24T22:59:20.403Z,92626.44
2024-04-24T23:01:54.188Z,92635.75
2024-04-24T23:04:21.697Z,92633.38
2024-04-24T23:06:48.980Z,92638.75
2024-04-24T23:09:16.350Z,92638.34
2024-04-24T23:11:43.732Z,92633.59
2024-04-24T23:14:11.154Z,92627.66
2024-04-24T23:16:38.623Z,92635.97
2024-04-24T23:19:08.648Z,92628.84
2024-04-24T23:21:36.153Z,92628.44
2024-04-24T23:24:03.611Z,92625.47
2024-04-24T23:26:30.937Z,92613.75
2024-04-24T23:28:58.280Z,92607.81
2024-04-24T23:31:25.749Z,92608.19
2024-04-24T23:33:53.186Z,92613.94
2024-04-24T23:36:23.323Z,92612.94
2024-04-24T23:38:50.676Z,92609.56
2024-04-24T23:41:18.238Z,92606.56
2024-04-24T23:43:45.632Z,92606.09
2024-04-24T23:46:13.240Z,92600.56
2024-04-24T23:48:40.551Z,92610.25
2024-04-24T23:51:08.003Z,92607.66
2024-04-24T23:53:38.218Z,92615.97
2024-04-24T23:56:06.825Z,92605.66
2024-04-24T23:58:34.635Z,92609.81
